sensor_id;sensor_type;location;lat;lon;timestamp;P1;durP1;ratioP1;P2;durP2;ratioP2
18661;SDS011;61528;49.456;11.098;2022-09-09T06:08:21;3.90;;;2.37;;
18661;SDS011;61528;49.456;11.098;2022-09-09T06:10:47;4.43;;;2.53;;
18661;SDS011;61528;49.456;11.098;2022-09-09T06:13:13;3.87;;;2.40;;
18661;SDS011;61528;49.456;11.098;2022-09-09T06:15:40;4.80;;;2.20;;
18661;SDS011;61528;49.456;11.098;2022-09-09T06:18:15;4.27;;;2.23;;
18661;SDS011;61528;49.456;11.098;2022-09-09T06:20:43;6.93;;;2.10;;
18661;SDS011;61528;49.456;11.098;2022-09-09T06:23:09;3.30;;;2.00;;
18661;SDS011;61528;49.456;11.098;2022-09-09T06:25:37;5.50;;;2.03;;
18661;SDS011;61528;49.456;11.098;2022-09-09T06:28:04;5.10;;;2.20;;
18661;SDS011;61528;49.456;11.098;2022-09-09T06:30:30;5.97;;;2.80;;
18661;SDS011;61528;49.456;11.098;2022-09-09T06:32:56;3.87;;;2.10;;
18661;SDS011;61528;49.456;11.098;2022-09-09T06:35:23;4.00;;;1.90;;
18661;SDS011;61528;49.456;11.098;2022-09-09T06:37:49;4.10;;;2.03;;
18661;SDS011;61528;49.456;11.098;2022-09-09T06:40:16;3.17;;;1.70;;
18661;SDS011;61528;49.456;11.098;2022-09-09T06:42:43;4.83;;;1.83;;
18661;SDS011;61528;49.456;11.098;2022-09-09T06:45:09;5.40;;;2.10;;
18661;SDS011;61528;49.456;11.098;2022-09-09T06:47:36;4.37;;;2.13;;
18661;SDS011;61528;49.456;11.098;2022-09-09T06:50:02;2.70;;;1.70;;
18661;SDS011;61528;49.456;11.098;2022-09-09T06:52:29;4.33;;;1.90;;
18661;SDS011;61528;49.456;11.098;2022-09-09T06:54:55;6.37;;;3.10;;
18661;SDS011;61528;49.456;11.098;2022-09-09T06:57:23;6.60;;;1.93;;
18661;SDS011;61528;49.456;11.098;2022-09-09T06:59:49;5.63;;;1.90;;
18661;SDS011;61528;49.456;11.098;2022-09-09T07:02:15;4.63;;;1.73;;
18661;SDS011;61528;49.456;11.098;2022-09-09T07:04:42;3.53;;;1.70;;
18661;SDS011;61528;49.456;11.098;2022-09-09T07:07:08;2.97;;;1.47;;
18661;SDS011;61528;49.456;11.098;2022-09-09T07:09:37;5.27;;;2.03;;
18661;SDS011;61528;49.456;11.098;2022-09-09T07:12:03;5.33;;;1.90;;
18661;SDS011;61528;49.456;11.098;2022-09-09T07:14:31;3.37;;;1.77;;
18661;SDS011;61528;49.456;11.098;2022-09-09T07:16:58;1.73;;;1.53;;
18661;SDS011;61528;49.456;11.098;2022-09-09T07:19:25;2.60;;;1.50;;
18661;SDS011;61528;49.456;11.098;2022-09-09T07:21:52;3.60;;;1.60;;
18661;SDS011;61528;49.456;11.098;2022-09-09T07:24:19;2.40;;;1.50;;
18661;SDS011;61528;49.456;11.098;2022-09-09T07:26:46;3.47;;;1.63;;
18661;SDS011;61528;49.456;11.098;2022-09-09T07:29:12;3.43;;;1.67;;
18661;SDS011;61528;49.456;11.098;2022-09-09T07:31:39;8.17;;;1.80;;
18661;SDS011;61528;49.456;11.098;2022-09-09T07:34:07;3.37;;;1.60;;
18661;SDS011;61528;49.456;11.098;2022-09-09T07:36:35;2.27;;;1.40;;
18661;SDS011;61528;49.456;11.098;2022-09-09T07:39:07;2.73;;;1.70;;
18661;SDS011;61528;49.456;11.098;2022-09-09T07:41:38;2.37;;;1.60;;
18661;SDS011;61528;49.456;11.098;2022-09-09T07:44:05;2.53;;;1.50;;
18661;SDS011;61528;49.456;11.098;2022-09-09T07:46:32;3.20;;;1.53;;
18661;SDS011;61528;49.456;11.098;2022-09-09T07:48:59;3.30;;;1.63;;
18661;SDS011;61528;49.456;11.098;2022-09-09T07:51:27;4.43;;;1.87;;
18661;SDS011;61528;49.456;11.098;2022-09-09T07:53:55;2.73;;;1.40;;
18661;SDS011;61528;49.456;11.098;2022-09-09T07:56:25;2.93;;;1.43;;
18661;SDS011;61528;49.456;11.098;2022-09-09T07:58:52;2.57;;;1.40;;
18661;SDS011;61528;49.456;11.098;2022-09-09T08:01:21;3.47;;;1.50;;
18661;SDS011;61528;49.456;11.098;2022-09-09T08:03:52;3.83;;;1.43;;
18661;SDS011;61528;49.456;11.098;2022-09-09T08:09:04;2.60;;;1.50;;
18661;SDS011;61528;49.456;11.098;2022-09-09T08:14:18;3.23;;;1.50;;
18661;SDS011;61528;49.456;11.098;2022-09-09T08:16:46;4.23;;;1.40;;
18661;SDS011;61528;49.456;11.098;2022-09-09T08:19:12;2.47;;;1.50;;
18661;SDS011;61528;49.456;11.098;2022-09-09T08:21:40;4.00;;;1.33;;
18661;SDS011;61528;49.456;11.098;2022-09-09T08:24:09;2.87;;;1.40;;
18661;SDS011;61528;49.456;11.098;2022-09-09T08:26:36;3.13;;;1.17;;
18661;SDS011;61528;49.456;11.098;2022-09-09T08:29:03;3.03;;;1.40;;
18661;SDS011;61528;49.456;11.098;2022-09-09T08:31:31;4.63;;;1.40;;
18661;SDS011;61528;49.456;11.098;2022-09-09T08:33:58;9.50;;;1.57;;
18661;SDS011;61528;49.456;11.098;2022-09-09T08:36:25;2.93;;;1.60;;
18661;SDS011;61528;49.456;11.098;2022-09-09T08:38:53;2.27;;;1.30;;
18661;SDS011;61528;49.456;11.098;2022-09-09T08:44:07;2.57;;;1.10;;
18661;SDS011;61528;49.456;11.098;2022-09-09T08:51:50;2.57;;;1.47;;
18661;SDS011;61528;49.456;11.098;2022-09-09T08:54:20;4.47;;;1.70;;
18661;SDS011;61528;49.456;11.098;2022-09-09T08:56:47;2.27;;;1.27;;
18661;SDS011;61528;49.456;11.098;2022-09-09T08:59:16;2.90;;;1.30;;
18661;SDS011;61528;49.456;11.098;2022-09-09T09:04:40;5.97;;;1.50;;
18661;SDS011;61528;49.456;11.098;2022-09-09T09:07:24;6.43;;;1.40;;
18661;SDS011;61528;49.456;11.098;2022-09-09T09:12:24;2.73;;;1.20;;
18661;SDS011;61528;49.456;11.098;2022-09-09T09:14:50;3.00;;;1.30;;
18661;SDS011;61528;49.456;11.098;2022-09-09T09:17:18;2.30;;;1.10;;
18661;SDS011;61528;49.456;11.098;2022-09-09T09:19:45;2.20;;;1.03;;
18661;SDS011;61528;49.456;11.098;2022-09-09T09:24:51;3.33;;;0.90;;
18661;SDS011;61528;49.456;11.098;2022-09-09T09:29:46;2.67;;;0.93;;
18661;SDS011;61528;49.456;11.098;2022-09-09T09:32:15;3.27;;;0.90;;
18661;SDS011;61528;49.456;11.098;2022-09-09T09:35:30;3.17;;;0.90;;
18661;SDS011;61528;49.456;11.098;2022-09-09T09:37:31;3.33;;;0.90;;
18661;SDS011;61528;49.456;11.098;2022-09-09T09:40:09;2.07;;;0.70;;
18661;SDS011;61528;49.456;11.098;2022-09-09T09:42:35;2.63;;;0.90;;
18661;SDS011;61528;49.456;11.098;2022-09-09T09:45:41;2.73;;;0.93;;
18661;SDS011;61528;49.456;11.098;2022-09-09T09:47:58;1.73;;;0.73;;
18661;SDS011;61528;49.456;11.098;2022-09-09T09:50:25;1.30;;;0.70;;
18661;SDS011;61528;49.456;11.098;2022-09-09T09:52:58;1.17;;;0.70;;
18661;SDS011;61528;49.456;11.098;2022-09-09T09:55:25;2.47;;;1.00;;
18661;SDS011;61528;49.456;11.098;2022-09-09T09:57:52;2.77;;;1.00;;
18661;SDS011;61528;49.456;11.098;2022-09-09T10:00:20;1.47;;;0.80;;
18661;SDS011;61528;49.456;11.098;2022-09-09T10:02:47;1.63;;;0.93;;
18661;SDS011;61528;49.456;11.098;2022-09-09T10:05:15;1.53;;;0.80;;
18661;SDS011;61528;49.456;11.098;2022-09-09T10:07:42;3.20;;;0.80;;
18661;SDS011;61528;49.456;11.098;2022-09-09T10:10:46;1.83;;;0.73;;
18661;SDS011;61528;49.456;11.098;2022-09-09T10:21:08;4.13;;;0.90;;
18661;SDS011;61528;49.456;11.098;2022-09-09T10:26:32;4.47;;;0.83;;
18661;SDS011;61528;49.456;11.098;2022-09-09T10:40:02;2.63;;;0.90;;
18661;SDS011;61528;49.456;11.098;2022-09-09T10:42:36;3.00;;;1.00;;
18661;SDS011;61528;49.456;11.098;2022-09-09T10:45:23;2.13;;;0.80;;
18661;SDS011;61528;49.456;11.098;2022-09-09T10:50:39;2.20;;;0.80;;
18661;SDS011;61528;49.456;11.098;2022-09-09T10:55:41;2.77;;;1.10;;
18661;SDS011;61528;49.456;11.098;2022-09-09T10:58:10;1.77;;;0.87;;
18661;SDS011;61528;49.456;11.098;2022-09-09T11:00:42;3.37;;;0.73;;
18661;SDS011;61528;49.456;11.098;2022-09-09T11:03:31;1.80;;;0.83;;
18661;SDS011;61528;49.456;11.098;2022-09-09T11:06:00;1.97;;;0.90;;
18661;SDS011;61528;49.456;11.098;2022-09-09T11:08:28;2.37;;;1.00;;
18661;SDS011;61528;49.456;11.098;2022-09-09T11:13:37;2.43;;;0.70;;
18661;SDS011;61528;49.456;11.098;2022-09-09T11:16:25;2.03;;;0.80;;
18661;SDS011;61528;49.456;11.098;2022-09-09T11:19:03;1.10;;;0.70;;
18661;SDS011;61528;49.456;11.098;2022-09-09T11:21:37;1.57;;;0.73;;
18661;SDS011;61528;49.456;11.098;2022-09-09T11:24:06;1.77;;;0.80;;
18661;SDS011;61528;49.456;11.098;2022-09-09T11:26:38;2.53;;;1.00;;
18661;SDS011;61528;49.456;11.098;2022-09-09T11:34:30;2.27;;;0.90;;
18661;SDS011;61528;49.456;11.098;2022-09-09T11:41:53;1.77;;;1.00;;
18661;SDS011;61528;49.456;11.098;2022-09-09T11:44:23;2.30;;;0.80;;
18661;SDS011;61528;49.456;11.098;2022-09-09T11:46:50;1.97;;;0.80;;
18661;SDS011;61528;49.456;11.098;2022-09-09T11:49:50;3.20;;;1.20;;
18661;SDS011;61528;49.456;11.098;2022-09-09T11:53:02;1.63;;;0.90;;
18661;SDS011;61528;49.456;11.098;2022-09-09T11:54:57;2.80;;;0.80;;
18661;SDS011;61528;49.456;11.098;2022-09-09T11:57:34;2.60;;;0.90;;
18661;SDS011;61528;49.456;11.098;2022-09-09T12:00:02;2.50;;;0.90;;
18661;SDS011;61528;49.456;11.098;2022-09-09T12:02:28;1.37;;;0.80;;
18661;SDS011;61528;49.456;11.098;2022-09-09T12:05:07;1.50;;;0.80;;
18661;SDS011;61528;49.456;11.098;2022-09-09T12:07:37;4.07;;;0.90;;
18661;SDS011;61528;49.456;11.098;2022-09-09T12:10:17;1.87;;;0.80;;
18661;SDS011;61528;49.456;11.098;2022-09-09T12:12:45;3.07;;;1.23;;
18661;SDS011;61528;49.456;11.098;2022-09-09T12:17:47;2.27;;;0.90;;
18661;SDS011;61528;49.456;11.098;2022-09-09T12:25:35;1.30;;;0.80;;
18661;SDS011;61528;49.456;11.098;2022-09-09T12:28:14;1.17;;;0.63;;
18661;SDS011;61528;49.456;11.098;2022-09-09T12:33:16;3.20;;;0.90;;
18661;SDS011;61528;49.456;11.098;2022-09-09T12:35:43;1.20;;;0.80;;
18661;SDS011;61528;49.456;11.098;2022-09-09T12:38:12;2.27;;;1.07;;
18661;SDS011;61528;49.456;11.098;2022-09-09T12:40:39;2.37;;;1.20;;
18661;SDS011;61528;49.456;11.098;2022-09-09T12:43:19;1.57;;;0.80;;
18661;SDS011;61528;49.456;11.098;2022-09-09T12:45:46;2.33;;;0.80;;
18661;SDS011;61528;49.456;11.098;2022-09-09T12:48:14;3.93;;;1.00;;
18661;SDS011;61528;49.456;11.098;2022-09-09T12:50:52;2.57;;;1.03;;
18661;SDS011;61528;49.456;11.098;2022-09-09T12:53:30;2.47;;;1.00;;
18661;SDS011;61528;49.456;11.098;2022-09-09T12:56:02;1.33;;;0.90;;
18661;SDS011;61528;49.456;11.098;2022-09-09T12:58:29;2.37;;;0.90;;
18661;SDS011;61528;49.456;11.098;2022-09-09T13:01:00;2.40;;;1.33;;
18661;SDS011;61528;49.456;11.098;2022-09-09T13:03:28;3.27;;;1.20;;
18661;SDS011;61528;49.456;11.098;2022-09-09T13:05:57;1.10;;;0.83;;
18661;SDS011;61528;49.456;11.098;2022-09-09T13:08:25;3.20;;;0.90;;
18661;SDS011;61528;49.456;11.098;2022-09-09T13:13:38;2.70;;;0.60;;
18661;SDS011;61528;49.456;11.098;2022-09-09T13:16:07;2.23;;;0.70;;
18661;SDS011;61528;49.456;11.098;2022-09-09T13:18:44;1.30;;;0.70;;
18661;SDS011;61528;49.456;11.098;2022-09-09T13:21:10;5.37;;;1.03;;
18661;SDS011;61528;49.456;11.098;2022-09-09T13:23:37;2.00;;;0.80;;
18661;SDS011;61528;49.456;11.098;2022-09-09T13:26:05;2.63;;;0.80;;
18661;SDS011;61528;49.456;11.098;2022-09-09T13:28:33;2.07;;;0.80;;
18661;SDS011;61528;49.456;11.098;2022-09-09T13:31:04;2.23;;;0.80;;
18661;SDS011;61528;49.456;11.098;2022-09-09T13:33:38;2.87;;;0.83;;
18661;SDS011;61528;49.456;11.098;2022-09-09T13:36:06;0.60;;;0.60;;
18661;SDS011;61528;49.456;11.098;2022-09-09T13:38:35;2.17;;;0.70;;
18661;SDS011;61528;49.456;11.098;2022-09-09T13:41:06;2.30;;;1.03;;
18661;SDS011;61528;49.456;11.098;2022-09-09T13:43:43;1.07;;;0.60;;
18661;SDS011;61528;49.456;11.098;2022-09-09T13:48:59;1.63;;;0.70;;
18661;SDS011;61528;49.456;11.098;2022-09-09T13:53:54;1.97;;;0.80;;
18661;SDS011;61528;49.456;11.098;2022-09-09T13:56:20;3.07;;;1.10;;
18661;SDS011;61528;49.456;11.098;2022-09-09T13:58:46;2.43;;;0.77;;
18661;SDS011;61528;49.456;11.098;2022-09-09T14:01:13;2.00;;;0.87;;
18661;SDS011;61528;49.456;11.098;2022-09-09T14:03:39;2.63;;;0.97;;
18661;SDS011;61528;49.456;11.098;2022-09-09T14:06:05;3.13;;;1.00;;
18661;SDS011;61528;49.456;11.098;2022-09-09T14:08:32;5.00;;;0.87;;
18661;SDS011;61528;49.456;11.098;2022-09-09T14:11:02;2.60;;;1.10;;
18661;SDS011;61528;49.456;11.098;2022-09-09T14:13:28;1.37;;;0.70;;
18661;SDS011;61528;49.456;11.098;2022-09-09T14:15:55;2.57;;;0.90;;
18661;SDS011;61528;49.456;11.098;2022-09-09T14:18:21;2.50;;;0.70;;
18661;SDS011;61528;49.456;11.098;2022-09-09T14:20:48;2.47;;;0.80;;
18661;SDS011;61528;49.456;11.098;2022-09-09T14:23:15;1.97;;;0.70;;
18661;SDS011;61528;49.456;11.098;2022-09-09T14:25:42;1.63;;;0.70;;
18661;SDS011;61528;49.456;11.098;2022-09-09T14:28:12;2.77;;;1.10;;
18661;SDS011;61528;49.456;11.098;2022-09-09T14:30:39;1.50;;;0.70;;
18661;SDS011;61528;49.456;11.098;2022-09-09T14:33:06;2.93;;;0.80;;
18661;SDS011;61528;49.456;11.098;2022-09-09T14:35:33;4.13;;;0.90;;
18661;SDS011;61528;49.456;11.098;2022-09-09T14:37:59;1.77;;;0.90;;
18661;SDS011;61528;49.456;11.098;2022-09-09T14:40:27;2.80;;;1.00;;
18661;SDS011;61528;49.456;11.098;2022-09-09T14:42:53;2.90;;;0.97;;
18661;SDS011;61528;49.456;11.098;2022-09-09T14:45:21;3.53;;;0.97;;
18661;SDS011;61528;49.456;11.098;2022-09-09T14:47:49;5.53;;;1.00;;
18661;SDS011;61528;49.456;11.098;2022-09-09T14:50:16;3.20;;;1.03;;
18661;SDS011;61528;49.456;11.098;2022-09-09T14:52:42;1.87;;;0.67;;
18661;SDS011;61528;49.456;11.098;2022-09-09T14:55:09;2.10;;;1.03;;
18661;SDS011;61528;49.456;11.098;2022-09-09T14:57:36;3.97;;;1.03;;
18661;SDS011;61528;49.456;11.098;2022-09-09T15:00:05;2.70;;;0.87;;
18661;SDS011;61528;49.456;11.098;2022-09-09T15:02:32;1.83;;;0.90;;
18661;SDS011;61528;49.456;11.098;2022-09-09T15:04:58;3.97;;;1.03;;
18661;SDS011;61528;49.456;11.098;2022-09-09T15:07:24;1.80;;;1.00;;
18661;SDS011;61528;49.456;11.098;2022-09-09T15:09:51;4.73;;;1.20;;
18661;SDS011;61528;49.456;11.098;2022-09-09T15:12:18;2.03;;;1.10;;
18661;SDS011;61528;49.456;11.098;2022-09-09T15:14:44;4.10;;;1.40;;
18661;SDS011;61528;49.456;11.098;2022-09-09T15:17:11;3.97;;;1.20;;
18661;SDS011;61528;49.456;11.098;2022-09-09T15:19:37;2.17;;;0.90;;
18661;SDS011;61528;49.456;11.098;2022-09-09T15:22:04;3.30;;;1.00;;
18661;SDS011;61528;49.456;11.098;2022-09-09T15:24:31;3.90;;;0.90;;
18661;SDS011;61528;49.456;11.098;2022-09-09T15:26:57;1.90;;;0.93;;
18661;SDS011;61528;49.456;11.098;2022-09-09T15:29:24;2.67;;;0.90;;
18661;SDS011;61528;49.456;11.098;2022-09-09T15:31:50;2.50;;;0.83;;
18661;SDS011;61528;49.456;11.098;2022-09-09T15:34:16;1.77;;;0.97;;
18661;SDS011;61528;49.456;11.098;2022-09-09T15:36:43;3.83;;;1.20;;
18661;SDS011;61528;49.456;11.098;2022-09-09T15:39:11;3.13;;;1.00;;
18661;SDS011;61528;49.456;11.098;2022-09-09T15:41:41;2.13;;;1.13;;
18661;SDS011;61528;49.456;11.098;2022-09-09T15:44:07;2.67;;;1.10;;
18661;SDS011;61528;49.456;11.098;2022-09-09T15:46:39;2.57;;;1.53;;
18661;SDS011;61528;49.456;11.098;2022-09-09T15:49:12;2.90;;;1.03;;
18661;SDS011;61528;49.456;11.098;2022-09-09T15:51:40;2.90;;;0.73;;
18661;SDS011;61528;49.456;11.098;2022-09-09T15:54:08;2.33;;;0.90;;
18661;SDS011;61528;49.456;11.098;2022-09-09T15:56:34;2.27;;;0.90;;
18661;SDS011;61528;49.456;11.098;2022-09-09T15:59:01;2.60;;;0.83;;
18661;SDS011;61528;49.456;11.098;2022-09-09T16:01:28;3.43;;;0.87;;
18661;SDS011;61528;49.456;11.098;2022-09-09T16:03:55;1.37;;;0.70;;
18661;SDS011;61528;49.456;11.098;2022-09-09T16:06:22;1.27;;;0.60;;
18661;SDS011;61528;49.456;11.098;2022-09-09T16:08:49;1.40;;;0.60;;
18661;SDS011;61528;49.456;11.098;2022-09-09T16:11:17;0.90;;;0.60;;
18661;SDS011;61528;49.456;11.098;2022-09-09T16:13:44;1.30;;;0.60;;
18661;SDS011;61528;49.456;11.098;2022-09-09T16:16:11;1.03;;;0.67;;
18661;SDS011;61528;49.456;11.098;2022-09-09T16:18:42;0.57;;;0.47;;
18661;SDS011;61528;49.456;11.098;2022-09-09T16:21:13;0.57;;;0.50;;
18661;SDS011;61528;49.456;11.098;2022-09-09T16:23:39;1.53;;;0.70;;
18661;SDS011;61528;49.456;11.098;2022-09-09T16:26:05;2.83;;;0.70;;
18661;SDS011;61528;49.456;11.098;2022-09-09T16:28:31;0.87;;;0.60;;
18661;SDS011;61528;49.456;11.098;2022-09-09T16:30:57;0.80;;;0.40;;
18661;SDS011;61528;49.456;11.098;2022-09-09T16:33:24;1.00;;;0.40;;
18661;SDS011;61528;49.456;11.098;2022-09-09T16:35:51;1.23;;;0.40;;
18661;SDS011;61528;49.456;11.098;2022-09-09T16:38:17;0.83;;;0.60;;
18661;SDS011;61528;49.456;11.098;2022-09-09T16:40:43;0.87;;;0.50;;
18661;SDS011;61528;49.456;11.098;2022-09-09T16:45:47;1.03;;;0.80;;
18661;SDS011;61528;49.456;11.098;2022-09-09T16:48:13;1.03;;;0.60;;
18661;SDS011;61528;49.456;11.098;2022-09-09T16:50:39;1.03;;;0.80;;
18661;SDS011;61528;49.456;11.098;2022-09-09T16:53:05;1.30;;;0.63;;
18661;SDS011;61528;49.456;11.098;2022-09-09T16:55:37;3.90;;;0.90;;
18661;SDS011;61528;49.456;11.098;2022-09-09T16:58:03;0.90;;;0.80;;
18661;SDS011;61528;49.456;11.098;2022-09-09T17:00:30;1.37;;;0.70;;
18661;SDS011;61528;49.456;11.098;2022-09-09T17:02:56;0.87;;;0.80;;
18661;SDS011;61528;49.456;11.098;2022-09-09T17:05:22;2.10;;;0.77;;
18661;SDS011;61528;49.456;11.098;2022-09-09T17:07:50;0.70;;;0.70;;
18661;SDS011;61528;49.456;11.098;2022-09-09T17:10:16;0.97;;;0.70;;
18661;SDS011;61528;49.456;11.098;2022-09-09T17:12:42;1.00;;;0.60;;
18661;SDS011;61528;49.456;11.098;2022-09-09T17:15:09;1.70;;;0.60;;
18661;SDS011;61528;49.456;11.098;2022-09-09T17:17:35;1.17;;;0.70;;
18661;SDS011;61528;49.456;11.098;2022-09-09T17:20:01;2.50;;;0.80;;
18661;SDS011;61528;49.456;11.098;2022-09-09T17:22:27;1.50;;;0.80;;
18661;SDS011;61528;49.456;11.098;2022-09-09T17:24:53;2.23;;;1.00;;
18661;SDS011;61528;49.456;11.098;2022-09-09T17:27:20;1.83;;;0.90;;
18661;SDS011;61528;49.456;11.098;2022-09-09T17:29:46;0.87;;;0.87;;
18661;SDS011;61528;49.456;11.098;2022-09-09T17:32:12;1.40;;;0.80;;
18661;SDS011;61528;49.456;11.098;2022-09-09T17:34:38;1.13;;;0.70;;
18661;SDS011;61528;49.456;11.098;2022-09-09T17:37:04;1.33;;;0.70;;
18661;SDS011;61528;49.456;11.098;2022-09-09T17:39:31;1.70;;;0.83;;
18661;SDS011;61528;49.456;11.098;2022-09-09T17:41:57;2.33;;;1.00;;
18661;SDS011;61528;49.456;11.098;2022-09-09T17:44:23;3.33;;;1.00;;
18661;SDS011;61528;49.456;11.098;2022-09-09T17:46:50;1.93;;;1.20;;
18661;SDS011;61528;49.456;11.098;2022-09-09T17:49:16;3.87;;;1.10;;
18661;SDS011;61528;49.456;11.098;2022-09-09T17:51:43;1.50;;;0.90;;
18661;SDS011;61528;49.456;11.098;2022-09-09T17:54:16;2.40;;;1.20;;
18661;SDS011;61528;49.456;11.098;2022-09-09T17:56:43;2.00;;;0.70;;
18661;SDS011;61528;49.456;11.098;2022-09-09T17:59:10;1.83;;;0.80;;
18661;SDS011;61528;49.456;11.098;2022-09-09T18:01:38;1.07;;;0.70;;
18661;SDS011;61528;49.456;11.098;2022-09-09T18:04:05;2.70;;;0.93;;
18661;SDS011;61528;49.456;11.098;2022-09-09T18:06:36;0.87;;;0.70;;
18661;SDS011;61528;49.456;11.098;2022-09-09T18:09:06;1.63;;;0.60;;
18661;SDS011;61528;49.456;11.098;2022-09-09T18:11:34;1.67;;;0.90;;
18661;SDS011;61528;49.456;11.098;2022-09-09T18:14:04;2.43;;;0.83;;
18661;SDS011;61528;49.456;11.098;2022-09-09T18:16:31;0.80;;;0.60;;
18661;SDS011;61528;49.456;11.098;2022-09-09T18:19:00;0.83;;;0.70;;
18661;SDS011;61528;49.456;11.098;2022-09-09T18:21:29;1.83;;;0.97;;
18661;SDS011;61528;49.456;11.098;2022-09-09T18:23:57;1.30;;;0.60;;
18661;SDS011;61528;49.456;11.098;2022-09-09T18:26:24;1.00;;;0.70;;
18661;SDS011;61528;49.456;11.098;2022-09-09T18:28:55;2.97;;;1.73;;
18661;SDS011;61528;49.456;11.098;2022-09-09T18:31:23;3.07;;;0.73;;
18661;SDS011;61528;49.456;11.098;2022-09-09T18:33:50;0.80;;;0.43;;
18661;SDS011;61528;49.456;11.098;2022-09-09T18:36:24;3.20;;;1.50;;
18661;SDS011;61528;49.456;11.098;2022-09-09T18:38:51;2.03;;;0.90;;
18661;SDS011;61528;49.456;11.098;2022-09-09T18:41:22;3.73;;;1.17;;
18661;SDS011;61528;49.456;11.098;2022-09-09T18:43:49;4.57;;;1.90;;
18661;SDS011;61528;49.456;11.098;2022-09-09T18:46:16;3.70;;;1.83;;
18661;SDS011;61528;49.456;11.098;2022-09-09T18:48:43;2.83;;;1.60;;
18661;SDS011;61528;49.456;11.098;2022-09-09T18:51:10;3.70;;;1.40;;
18661;SDS011;61528;49.456;11.098;2022-09-09T18:53:37;2.43;;;1.10;;
18661;SDS011;61528;49.456;11.098;2022-09-09T18:56:04;3.10;;;1.40;;
18661;SDS011;61528;49.456;11.098;2022-09-09T18:58:31;3.53;;;1.50;;
18661;SDS011;61528;49.456;11.098;2022-09-09T19:00:58;2.97;;;1.57;;
18661;SDS011;61528;49.456;11.098;2022-09-09T19:03:24;3.63;;;1.70;;
18661;SDS011;61528;49.456;11.098;2022-09-09T19:05:51;3.07;;;1.50;;
18661;SDS011;61528;49.456;11.098;2022-09-09T19:08:18;2.97;;;1.40;;
18661;SDS011;61528;49.456;11.098;2022-09-09T19:10:47;2.43;;;1.30;;
18661;SDS011;61528;49.456;11.098;2022-09-09T19:13:13;3.33;;;1.30;;
18661;SDS011;61528;49.456;11.098;2022-09-09T19:15:40;3.30;;;1.30;;
18661;SDS011;61528;49.456;11.098;2022-09-09T19:18:06;3.70;;;1.47;;
18661;SDS011;61528;49.456;11.098;2022-09-09T19:20:33;1.83;;;1.20;;
18661;SDS011;61528;49.456;11.098;2022-09-09T19:22:59;4.43;;;1.07;;
18661;SDS011;61528;49.456;11.098;2022-09-09T19:25:26;1.97;;;1.13;;
18661;SDS011;61528;49.456;11.098;2022-09-09T19:27:52;3.10;;;1.17;;
18661;SDS011;61528;49.456;11.098;2022-09-09T19:30:18;1.60;;;1.10;;
18661;SDS011;61528;49.456;11.098;2022-09-09T19:32:44;4.33;;;1.57;;
18661;SDS011;61528;49.456;11.098;2022-09-09T19:35:10;1.50;;;1.13;;
18661;SDS011;61528;49.456;11.098;2022-09-09T19:37:37;1.57;;;1.23;;
18661;SDS011;61528;49.456;11.098;2022-09-09T19:40:03;3.57;;;1.50;;
18661;SDS011;61528;49.456;11.098;2022-09-09T19:42:32;2.00;;;1.30;;
18661;SDS011;61528;49.456;11.098;2022-09-09T19:44:58;2.60;;;1.30;;
18661;SDS011;61528;49.456;11.098;2022-09-09T19:47:25;2.03;;;1.10;;
18661;SDS011;61528;49.456;11.098;2022-09-09T19:49:51;2.30;;;1.27;;
18661;SDS011;61528;49.456;11.098;2022-09-09T19:52:17;2.97;;;1.60;;
18661;SDS011;61528;49.456;11.098;2022-09-09T19:54:44;3.97;;;1.40;;
18661;SDS011;61528;49.456;11.098;2022-09-09T19:57:10;5.17;;;1.60;;
18661;SDS011;61528;49.456;11.098;2022-09-09T19:59:37;3.07;;;1.70;;
18661;SDS011;61528;49.456;11.098;2022-09-09T20:02:03;3.50;;;1.77;;
18661;SDS011;61528;49.456;11.098;2022-09-09T20:04:29;3.17;;;1.57;;
18661;SDS011;61528;49.456;11.098;2022-09-09T20:06:56;2.60;;;1.60;;
18661;SDS011;61528;49.456;11.098;2022-09-09T20:09:22;3.43;;;1.60;;
18661;SDS011;61528;49.456;11.098;2022-09-09T20:11:50;3.47;;;1.63;;
18661;SDS011;61528;49.456;11.098;2022-09-09T20:14:17;4.37;;;1.73;;
18661;SDS011;61528;49.456;11.098;2022-09-09T20:16:44;3.83;;;1.67;;
18661;SDS011;61528;49.456;11.098;2022-09-09T20:19:11;3.87;;;1.97;;
18661;SDS011;61528;49.456;11.098;2022-09-09T20:21:38;5.27;;;1.83;;
18661;SDS011;61528;49.456;11.098;2022-09-09T20:24:06;2.43;;;1.77;;
18661;SDS011;61528;49.456;11.098;2022-09-09T20:26:33;2.90;;;1.97;;
18661;SDS011;61528;49.456;11.098;2022-09-09T20:29:11;2.50;;;1.40;;
18661;SDS011;61528;49.456;11.098;2022-09-09T20:31:38;2.87;;;1.60;;
18661;SDS011;61528;49.456;11.098;2022-09-09T20:34:06;1.73;;;1.20;;
18661;SDS011;61528;49.456;11.098;2022-09-09T20:36:34;3.43;;;1.10;;
18661;SDS011;61528;49.456;11.098;2022-09-09T20:39:19;2.37;;;0.83;;
18661;SDS011;61528;49.456;11.098;2022-09-09T20:41:46;1.97;;;1.10;;
18661;SDS011;61528;49.456;11.098;2022-09-09T20:44:22;4.13;;;1.23;;
18661;SDS011;61528;49.456;11.098;2022-09-09T20:46:49;1.30;;;0.90;;
18661;SDS011;61528;49.456;11.098;2022-09-09T20:49:17;2.10;;;1.20;;
18661;SDS011;61528;49.456;11.098;2022-09-09T20:51:45;2.50;;;1.20;;
18661;SDS011;61528;49.456;11.098;2022-09-09T20:54:13;3.10;;;1.27;;
18661;SDS011;61528;49.456;11.098;2022-09-09T20:56:40;2.80;;;1.00;;
18661;SDS011;61528;49.456;11.098;2022-09-09T20:59:09;4.97;;;1.50;;
18661;SDS011;61528;49.456;11.098;2022-09-09T21:01:36;4.50;;;1.70;;
18661;SDS011;61528;49.456;11.098;2022-09-09T21:04:03;3.17;;;1.03;;
18661;SDS011;61528;49.456;11.098;2022-09-09T21:06:30;4.43;;;1.23;;
18661;SDS011;61528;49.456;11.098;2022-09-09T21:08:56;5.33;;;1.20;;
18661;SDS011;61528;49.456;11.098;2022-09-09T21:11:22;3.40;;;1.00;;
18661;SDS011;61528;49.456;11.098;2022-09-09T21:13:48;2.03;;;1.10;;
18661;SDS011;61528;49.456;11.098;2022-09-09T21:16:15;2.23;;;1.27;;
18661;SDS011;61528;49.456;11.098;2022-09-09T21:18:46;3.70;;;1.00;;
18661;SDS011;61528;49.456;11.098;2022-09-09T21:21:12;2.20;;;1.27;;
18661;SDS011;61528;49.456;11.098;2022-09-09T21:23:39;2.10;;;1.27;;
18661;SDS011;61528;49.456;11.098;2022-09-09T21:26:06;2.57;;;1.20;;
18661;SDS011;61528;49.456;11.098;2022-09-09T21:28:34;3.87;;;1.17;;
18661;SDS011;61528;49.456;11.098;2022-09-09T21:31:00;2.53;;;1.20;;
18661;SDS011;61528;49.456;11.098;2022-09-09T21:33:26;2.07;;;1.23;;
18661;SDS011;61528;49.456;11.098;2022-09-09T21:35:53;3.10;;;1.30;;
18661;SDS011;61528;49.456;11.098;2022-09-09T21:38:21;2.73;;;1.17;;
18661;SDS011;61528;49.456;11.098;2022-09-09T21:40:48;3.87;;;1.40;;
18661;SDS011;61528;49.456;11.098;2022-09-09T21:43:15;2.70;;;1.33;;
18661;SDS011;61528;49.456;11.098;2022-09-09T21:45:42;3.60;;;1.50;;
18661;SDS011;61528;49.456;11.098;2022-09-09T21:48:09;1.97;;;1.20;;
18661;SDS011;61528;49.456;11.098;2022-09-09T21:50:39;1.80;;;1.10;;
18661;SDS011;61528;49.456;11.098;2022-09-09T21:53:06;1.63;;;0.97;;
18661;SDS011;61528;49.456;11.098;2022-09-09T21:55:34;4.80;;;1.60;;
18661;SDS011;61528;49.456;11.098;2022-09-09T21:58:01;2.60;;;1.20;;
18661;SDS011;61528;49.456;11.098;2022-09-09T22:00:27;3.40;;;0.93;;
18661;SDS011;61528;49.456;11.098;2022-09-09T22:02:53;2.57;;;0.77;;
18661;SDS011;61528;49.456;11.098;2022-09-09T22:05:20;1.03;;;0.80;;
18661;SDS011;61528;49.456;11.098;2022-09-09T22:07:46;1.90;;;1.07;;
18661;SDS011;61528;49.456;11.098;2022-09-09T22:10:12;2.37;;;0.70;;
18661;SDS011;61528;49.456;11.098;2022-09-09T22:12:38;3.93;;;1.17;;